sensor_id;sensor_type;location;lat;lon;timestamp;temperature;humidity
33717;DHT22;20046;50.746;7.072;2022-08-19T00:01:28;19.00;99.90
33717;DHT22;20046;50.746;7.072;2022-08-19T00:03:56;19.00;99.90
33717;DHT22;20046;50.746;7.072;2022-08-19T00:06:21;19.00;99.90
33717;DHT22;20046;50.746;7.072;2022-08-19T00:08:47;18.90;99.90
33717;DHT22;20046;50.746;7.072;2022-08-19T00:11:13;18.90;99.90
33717;DHT22;20046;50.746;7.072;2022-08-19T00:13:39;18.90;99.90
33717;DHT22;20046;50.746;7.072;2022-08-19T00:16:06;18.80;99.90
33717;DHT22;20046;50.746;7.072;2022-08-19T00:18:32;18.80;99.90
33717;DHT22;20046;50.746;7.072;2022-08-19T00:20:58;18.80;99.90
33717;DHT22;20046;50.746;7.072;2022-08-19T00:23:25;18.70;99.90
33717;DHT22;20046;50.746;7.072;2022-08-19T00:25:50;18.70;99.90
33717;DHT22;20046;50.746;7.072;2022-08-19T00:28:18;18.60;99.90
33717;DHT22;20046;50.746;7.072;2022-08-19T00:30:45;18.60;99.90
33717;DHT22;20046;50.746;7.072;2022-08-19T00:33:11;18.60;99.90
33717;DHT22;20046;50.746;7.072;2022-08-19T00:35:36;18.60;99.90
33717;DHT22;20046;50.746;7.072;2022-08-19T00:38:04;18.50;99.90
33717;DHT22;20046;50.746;7.072;2022-08-19T00:40:31;18.50;99.90
33717;DHT22;20046;50.746;7.072;2022-08-19T00:42:56;18.40;99.90
33717;DHT22;20046;50.746;7.072;2022-08-19T00:45:24;18.40;99.90
33717;DHT22;20046;50.746;7.072;2022-08-19T00:47:50;18.30;99.90
33717;DHT22;20046;50.746;7.072;2022-08-19T00:50:18;18.30;99.90
33717;DHT22;20046;50.746;7.072;2022-08-19T00:52:47;18.30;99.90
33717;DHT22;20046;50.746;7.072;2022-08-19T00:55:25;18.30;99.90
33717;DHT22;20046;50.746;7.072;2022-08-19T00:58:00;18.20;99.90
33717;DHT22;20046;50.746;7.072;2022-08-19T01:00:28;18.20;99.90
33717;DHT22;20046;50.746;7.072;2022-08-19T01:02:53;18.20;99.90
33717;DHT22;20046;50.746;7.072;2022-08-19T01:05:23;18.30;99.90
33717;DHT22;20046;50.746;7.072;2022-08-19T01:07:50;18.20;99.90
33717;DHT22;20046;50.746;7.072;2022-08-19T01:10:21;18.20;99.90
33717;DHT22;20046;50.746;7.072;2022-08-19T01:12:49;18.20;99.90
33717;DHT22;20046;50.746;7.072;2022-08-19T01:15:18;18.10;99.90
33717;DHT22;20046;50.746;7.072;2022-08-19T01:17:45;18.10;99.90
33717;DHT22;20046;50.746;7.072;2022-08-19T01:20:19;18.10;99.90
33717;DHT22;20046;50.746;7.072;2022-08-19T01:25:13;18.10;99.90
33717;DHT22;20046;50.746;7.072;2022-08-19T01:27:40;18.10;99.90
33717;DHT22;20046;50.746;7.072;2022-08-19T01:30:07;18.10;99.90
33717;DHT22;20046;50.746;7.072;2022-08-19T01:32:33;18.10;99.90
33717;DHT22;20046;50.746;7.072;2022-08-19T01:34:59;18.00;99.90
33717;DHT22;20046;50.746;7.072;2022-08-19T01:37:27;18.10;99.90
33717;DHT22;20046;50.746;7.072;2022-08-19T01:39:52;18.00;99.90
33717;DHT22;20046;50.746;7.072;2022-08-19T01:42:18;18.00;99.90
33717;DHT22;20046;50.746;7.072;2022-08-19T01:44:45;18.00;99.90
33717;DHT22;20046;50.746;7.072;2022-08-19T01:47:11;18.00;99.90
33717;DHT22;20046;50.746;7.072;2022-08-19T01:49:37;17.90;99.90
33717;DHT22;20046;50.746;7.072;2022-08-19T01:52:03;17.90;99.90
33717;DHT22;20046;50.746;7.072;2022-08-19T01:54:29;17.80;99.90
33717;DHT22;20046;50.746;7.072;2022-08-19T01:57:02;17.80;99.90
33717;DHT22;20046;50.746;7.072;2022-08-19T01:59:29;17.80;99.90
33717;DHT22;20046;50.746;7.072;2022-08-19T02:01:55;17.80;99.90
33717;DHT22;20046;50.746;7.072;2022-08-19T02:04:21;17.80;99.90
33717;DHT22;20046;50.746;7.072;2022-08-19T02:06:46;17.80;99.90
33717;DHT22;20046;50.746;7.072;2022-08-19T02:09:13;17.80;99.90
33717;DHT22;20046;50.746;7.072;2022-08-19T02:11:41;17.80;99.90
33717;DHT22;20046;50.746;7.072;2022-08-19T02:14:07;17.80;99.90
33717;DHT22;20046;50.746;7.072;2022-08-19T02:16:34;17.80;99.90
33717;DHT22;20046;50.746;7.072;2022-08-19T02:19:00;17.80;99.90
33717;DHT22;20046;50.746;7.072;2022-08-19T02:21:26;17.90;99.90
33717;DHT22;20046;50.746;7.072;2022-08-19T02:23:52;17.80;99.90
33717;DHT22;20046;50.746;7.072;2022-08-19T02:26:19;17.80;99.90
33717;DHT22;20046;50.746;7.072;2022-08-19T02:28:44;17.80;99.90
33717;DHT22;20046;50.746;7.072;2022-08-19T02:31:18;17.80;99.90
33717;DHT22;20046;50.746;7.072;2022-08-19T02:33:44;17.80;99.90
33717;DHT22;20046;50.746;7.072;2022-08-19T02:36:12;17.70;99.90
33717;DHT22;20046;50.746;7.072;2022-08-19T02:38:38;17.70;99.90
33717;DHT22;20046;50.746;7.072;2022-08-19T02:41:08;17.70;99.90
33717;DHT22;20046;50.746;7.072;2022-08-19T02:43:36;17.70;99.90
33717;DHT22;20046;50.746;7.072;2022-08-19T02:48:39;17.60;99.90
33717;DHT22;20046;50.746;7.072;2022-08-19T02:51:05;17.60;99.90
33717;DHT22;20046;50.746;7.072;2022-08-19T02:53:31;17.60;99.90
33717;DHT22;20046;50.746;7.072;2022-08-19T02:55:57;17.60;99.90
33717;DHT22;20046;50.746;7.072;2022-08-19T02:58:23;17.60;99.90
33717;DHT22;20046;50.746;7.072;2022-08-19T03:00:52;17.50;99.90
33717;DHT22;20046;50.746;7.072;2022-08-19T03:03:19;17.60;99.90
33717;DHT22;20046;50.746;7.072;2022-08-19T03:05:45;17.60;99.90
33717;DHT22;20046;50.746;7.072;2022-08-19T03:08:12;17.60;99.90
33717;DHT22;20046;50.746;7.072;2022-08-19T03:10:43;17.60;99.90
33717;DHT22;20046;50.746;7.072;2022-08-19T03:13:10;17.60;99.90
33717;DHT22;20046;50.746;7.072;2022-08-19T03:15:40;17.70;99.90
33717;DHT22;20046;50.746;7.072;2022-08-19T03:18:05;17.70;99.90
33717;DHT22;20046;50.746;7.072;2022-08-19T03:20:31;17.70;99.90
33717;DHT22;20046;50.746;7.072;2022-08-19T03:22:56;17.60;99.90
33717;DHT22;20046;50.746;7.072;2022-08-19T03:25:22;17.70;99.90
33717;DHT22;20046;50.746;7.072;2022-08-19T03:27:48;17.60;99.90
33717;DHT22;20046;50.746;7.072;2022-08-19T03:30:14;17.60;99.90
33717;DHT22;20046;50.746;7.072;2022-08-19T03:32:40;17.60;99.90
33717;DHT22;20046;50.746;7.072;2022-08-19T03:35:06;17.60;99.90
33717;DHT22;20046;50.746;7.072;2022-08-19T03:37:32;17.50;99.90
33717;DHT22;20046;50.746;7.072;2022-08-19T03:39:58;17.50;99.90
33717;DHT22;20046;50.746;7.072;2022-08-19T03:42:23;17.50;99.90
33717;DHT22;20046;50.746;7.072;2022-08-19T03:44:52;17.50;99.90
33717;DHT22;20046;50.746;7.072;2022-08-19T03:47:18;17.50;99.90
33717;DHT22;20046;50.746;7.072;2022-08-19T03:49:44;17.50;99.90
33717;DHT22;20046;50.746;7.072;2022-08-19T03:52:09;17.50;99.90
33717;DHT22;20046;50.746;7.072;2022-08-19T03:54:36;17.50;99.90
33717;DHT22;20046;50.746;7.072;2022-08-19T03:57:03;17.40;99.90
33717;DHT22;20046;50.746;7.072;2022-08-19T03:59:32;17.50;99.90
33717;DHT22;20046;50.746;7.072;2022-08-19T04:02:01;17.40;99.90
33717;DHT22;20046;50.746;7.072;2022-08-19T04:04:27;17.40;99.90
33717;DHT22;20046;50.746;7.072;2022-08-19T04:06:54;17.30;99.90
33717;DHT22;20046;50.746;7.072;2022-08-19T04:09:20;17.30;99.90
33717;DHT22;20046;50.746;7.072;2022-08-19T04:11:49;17.30;99.90
33717;DHT22;20046;50.746;7.072;2022-08-19T04:14:17;17.20;99.90
33717;DHT22;20046;50.746;7.072;2022-08-19T04:16:45;17.20;99.90
33717;DHT22;20046;50.746;7.072;2022-08-19T04:19:12;17.20;99.90
33717;DHT22;20046;50.746;7.072;2022-08-19T04:21:38;17.20;99.90
33717;DHT22;20046;50.746;7.072;2022-08-19T04:24:04;17.20;99.90
33717;DHT22;20046;50.746;7.072;2022-08-19T04:26:33;17.20;99.90
33717;DHT22;20046;50.746;7.072;2022-08-19T04:29:06;17.20;99.90
33717;DHT22;20046;50.746;7.072;2022-08-19T04:31:33;17.10;99.90
33717;DHT22;20046;50.746;7.072;2022-08-19T04:34:05;17.10;99.90
33717;DHT22;20046;50.746;7.072;2022-08-19T04:36:33;17.10;99.90
33717;DHT22;20046;50.746;7.072;2022-08-19T04:39:04;17.10;99.90
33717;DHT22;20046;50.746;7.072;2022-08-19T04:41:29;17.10;99.90
33717;DHT22;20046;50.746;7.072;2022-08-19T04:44:14;17.10;99.90
33717;DHT22;20046;50.746;7.072;2022-08-19T04:46:44;17.10;99.90
33717;DHT22;20046;50.746;7.072;2022-08-19T04:49:10;17.00;99.90
33717;DHT22;20046;50.746;7.072;2022-08-19T04:51:35;17.00;99.90
33717;DHT22;20046;50.746;7.072;2022-08-19T04:54:03;17.10;99.90
33717;DHT22;20046;50.746;7.072;2022-08-19T04:56:29;17.00;99.90
33717;DHT22;20046;50.746;7.072;2022-08-19T04:58:56;17.10;99.90
33717;DHT22;20046;50.746;7.072;2022-08-19T05:01:26;17.10;99.90
33717;DHT22;20046;50.746;7.072;2022-08-19T05:03:53;17.10;99.90
33717;DHT22;20046;50.746;7.072;2022-08-19T05:06:20;17.10;99.90
33717;DHT22;20046;50.746;7.072;2022-08-19T05:08:47;17.20;99.90
33717;DHT22;20046;50.746;7.072;2022-08-19T05:11:14;17.20;99.90
33717;DHT22;20046;50.746;7.072;2022-08-19T05:13:40;17.20;99.90
33717;DHT22;20046;50.746;7.072;2022-08-19T05:16:08;17.20;99.90
33717;DHT22;20046;50.746;7.072;2022-08-19T05:18:34;17.30;99.90
33717;DHT22;20046;50.746;7.072;2022-08-19T05:21:20;17.40;99.90
33717;DHT22;20046;50.746;7.072;2022-08-19T05:24:05;17.50;99.90
33717;DHT22;20046;50.746;7.072;2022-08-19T05:26:35;17.60;99.90
33717;DHT22;20046;50.746;7.072;2022-08-19T05:29:01;17.60;99.90
33717;DHT22;20046;50.746;7.072;2022-08-19T05:31:27;17.60;99.90
33717;DHT22;20046;50.746;7.072;2022-08-19T05:33:53;17.60;99.90
33717;DHT22;20046;50.746;7.072;2022-08-19T05:36:19;17.70;99.90
33717;DHT22;20046;50.746;7.072;2022-08-19T05:38:45;17.70;99.90
33717;DHT22;20046;50.746;7.072;2022-08-19T05:41:13;17.70;99.90
33717;DHT22;20046;50.746;7.072;2022-08-19T05:43:40;17.80;99.90
33717;DHT22;20046;50.746;7.072;2022-08-19T05:46:07;17.80;99.90
33717;DHT22;20046;50.746;7.072;2022-08-19T05:48:35;17.90;99.90
33717;DHT22;20046;50.746;7.072;2022-08-19T05:51:05;17.90;99.90
33717;DHT22;20046;50.746;7.072;2022-08-19T05:53:32;17.90;99.90
33717;DHT22;20046;50.746;7.072;2022-08-19T05:56:08;18.10;99.90
33717;DHT22;20046;50.746;7.072;2022-08-19T05:58:35;18.10;99.90
33717;DHT22;20046;50.746;7.072;2022-08-19T06:01:01;18.10;99.90
33717;DHT22;20046;50.746;7.072;2022-08-19T06:03:30;18.20;99.90
33717;DHT22;20046;50.746;7.072;2022-08-19T06:05:57;18.20;99.90
33717;DHT22;20046;50.746;7.072;2022-08-19T06:08:25;18.20;99.90
33717;DHT22;20046;50.746;7.072;2022-08-19T06:10:51;18.30;99.90
33717;DHT22;20046;50.746;7.072;2022-08-19T06:13:16;18.30;99.90
33717;DHT22;20046;50.746;7.072;2022-08-19T06:15:45;18.30;99.90
33717;DHT22;20046;50.746;7.072;2022-08-19T06:18:12;18.40;99.90
33717;DHT22;20046;50.746;7.072;2022-08-19T06:20:38;18.50;99.90
33717;DHT22;20046;50.746;7.072;2022-08-19T06:23:04;18.40;99.90
33717;DHT22;20046;50.746;7.072;2022-08-19T06:25:30;18.50;99.90
33717;DHT22;20046;50.746;7.072;2022-08-19T06:27:55;18.60;99.90
33717;DHT22;20046;50.746;7.072;2022-08-19T06:30:21;18.60;99.90
33717;DHT22;20046;50.746;7.072;2022-08-19T06:32:47;18.70;99.90
33717;DHT22;20046;50.746;7.072;2022-08-19T06:35:12;18.80;99.90
33717;DHT22;20046;50.746;7.072;2022-08-19T06:37:40;18.90;99.90
33717;DHT22;20046;50.746;7.072;2022-08-19T06:40:07;18.90;99.90
33717;DHT22;20046;50.746;7.072;2022-08-19T06:42:34;19.00;99.90
33717;DHT22;20046;50.746;7.072;2022-08-19T06:45:00;19.10;99.90
33717;DHT22;20046;50.746;7.072;2022-08-19T06:47:29;19.10;99.90
33717;DHT22;20046;50.746;7.072;2022-08-19T06:49:57;19.30;99.90
33717;DHT22;20046;50.746;7.072;2022-08-19T06:52:34;19.30;99.90
33717;DHT22;20046;50.746;7.072;2022-08-19T06:55:01;19.40;99.90
33717;DHT22;20046;50.746;7.072;2022-08-19T06:57:27;19.50;99.90
33717;DHT22;20046;50.746;7.072;2022-08-19T06:59:58;19.60;99.90
33717;DHT22;20046;50.746;7.072;2022-08-19T07:02:25;19.70;99.90
33717;DHT22;20046;50.746;7.072;2022-08-19T07:04:52;19.80;99.90
33717;DHT22;20046;50.746;7.072;2022-08-19T07:07:19;19.90;99.90
33717;DHT22;20046;50.746;7.072;2022-08-19T07:09:46;19.90;99.90
33717;DHT22;20046;50.746;7.072;2022-08-19T07:12:13;20.00;99.90
33717;DHT22;20046;50.746;7.072;2022-08-19T07:14:42;20.10;99.90
33717;DHT22;20046;50.746;7.072;2022-08-19T07:17:10;20.20;99.90
33717;DHT22;20046;50.746;7.072;2022-08-19T07:19:37;20.40;99.90
33717;DHT22;20046;50.746;7.072;2022-08-19T07:22:05;20.50;99.90
33717;DHT22;20046;50.746;7.072;2022-08-19T07:24:31;20.60;99.90
33717;DHT22;20046;50.746;7.072;2022-08-19T07:27:00;20.80;99.90
33717;DHT22;20046;50.746;7.072;2022-08-19T07:29:30;20.90;99.90
33717;DHT22;20046;50.746;7.072;2022-08-19T07:31:59;21.10;99.90
33717;DHT22;20046;50.746;7.072;2022-08-19T07:34:26;21.30;99.90
33717;DHT22;20046;50.746;7.072;2022-08-19T07:36:53;21.50;99.90
33717;DHT22;20046;50.746;7.072;2022-08-19T07:39:28;21.60;99.90
33717;DHT22;20046;50.746;7.072;2022-08-19T07:41:56;21.70;99.90
33717;DHT22;20046;50.746;7.072;2022-08-19T07:44:22;21.80;99.90
33717;DHT22;20046;50.746;7.072;2022-08-19T07:46:51;21.90;99.90
33717;DHT22;20046;50.746;7.072;2022-08-19T07:49:18;22.10;99.90
33717;DHT22;20046;50.746;7.072;2022-08-19T07:51:50;22.20;99.90
33717;DHT22;20046;50.746;7.072;2022-08-19T07:54:17;22.40;99.90
33717;DHT22;20046;50.746;7.072;2022-08-19T07:56:42;22.60;99.90
33717;DHT22;20046;50.746;7.072;2022-08-19T07:59:08;22.60;99.90
33717;DHT22;20046;50.746;7.072;2022-08-19T08:01:34;22.70;99.90
33717;DHT22;20046;50.746;7.072;2022-08-19T08:04:00;22.80;99.90
33717;DHT22;20046;50.746;7.072;2022-08-19T08:06:44;22.90;99.90
33717;DHT22;20046;50.746;7.072;2022-08-19T08:09:33;23.10;99.90
33717;DHT22;20046;50.746;7.072;2022-08-19T08:12:12;23.30;99.90
33717;DHT22;20046;50.746;7.072;2022-08-19T08:14:41;23.60;99.90
33717;DHT22;20046;50.746;7.072;2022-08-19T08:17:09;23.90;99.90
33717;DHT22;20046;50.746;7.072;2022-08-19T08:19:35;24.40;99.90
33717;DHT22;20046;50.746;7.072;2022-08-19T08:22:01;25.00;99.90
33717;DHT22;20046;50.746;7.072;2022-08-19T08:24:29;25.40;99.90
33717;DHT22;20046;50.746;7.072;2022-08-19T08:26:57;25.80;99.90
33717;DHT22;20046;50.746;7.072;2022-08-19T08:29:25;26.20;99.90
33717;DHT22;20046;50.746;7.072;2022-08-19T08:31:51;26.80;99.90
33717;DHT22;20046;50.746;7.072;2022-08-19T08:34:16;27.10;99.90
33717;DHT22;20046;50.746;7.072;2022-08-19T08:36:44;27.20;99.90
33717;DHT22;20046;50.746;7.072;2022-08-19T08:39:12;26.90;99.90
33717;DHT22;20046;50.746;7.072;2022-08-19T08:47:05;27.10;99.90
33717;DHT22;20046;50.746;7.072;2022-08-19T08:52:21;27.10;99.80
33717;DHT22;20046;50.746;7.072;2022-08-19T08:54:51;27.30;99.70
33717;DHT22;20046;50.746;7.072;2022-08-19T09:00:27;28.00;98.60
33717;DHT22;20046;50.746;7.072;2022-08-19T09:02:54;28.50;97.70
33717;DHT22;20046;50.746;7.072;2022-08-19T09:05:21;28.70;97.20
33717;DHT22;20046;50.746;7.072;2022-08-19T09:10:46;29.50;95.90
33717;DHT22;20046;50.746;7.072;2022-08-19T09:13:36;30.00;94.50
33717;DHT22;20046;50.746;7.072;2022-08-19T09:16:09;30.40;93.10
33717;DHT22;20046;50.746;7.072;2022-08-19T09:18:40;30.40;92.40
33717;DHT22;20046;50.746;7.072;2022-08-19T09:21:06;30.20;92.20
33717;DHT22;20046;50.746;7.072;2022-08-19T09:23:34;29.70;92.20
33717;DHT22;20046;50.746;7.072;2022-08-19T09:26:00;29.40;92.50
33717;DHT22;20046;50.746;7.072;2022-08-19T09:28:26;29.30;92.50
33717;DHT22;20046;50.746;7.072;2022-08-19T09:30:52;29.40;92.10
33717;DHT22;20046;50.746;7.072;2022-08-19T09:33:17;29.60;91.80
33717;DHT22;20046;50.746;7.072;2022-08-19T09:35:43;29.80;91.30
33717;DHT22;20046;50.746;7.072;2022-08-19T09:38:09;30.10;90.70
33717;DHT22;20046;50.746;7.072;2022-08-19T09:40:34;30.10;90.30
33717;DHT22;20046;50.746;7.072;2022-08-19T09:43:00;29.70;90.30
33717;DHT22;20046;50.746;7.072;2022-08-19T09:45:28;29.30;90.50
33717;DHT22;20046;50.746;7.072;2022-08-19T09:47:54;28.70;90.70
33717;DHT22;20046;50.746;7.072;2022-08-19T09:50:19;28.20;91.00
33717;DHT22;20046;50.746;7.072;2022-08-19T09:52:46;28.00;91.40
33717;DHT22;20046;50.746;7.072;2022-08-19T09:55:12;27.60;91.80
33717;DHT22;20046;50.746;7.072;2022-08-19T09:57:38;27.40;91.80
33717;DHT22;20046;50.746;7.072;2022-08-19T10:00:06;27.40;92.50
33717;DHT22;20046;50.746;7.072;2022-08-19T10:02:32;27.40;92.70
33717;DHT22;20046;50.746;7.072;2022-08-19T10:04:58;27.30;92.90
33717;DHT22;20046;50.746;7.072;2022-08-19T10:07:42;27.40;92.90
33717;DHT22;20046;50.746;7.072;2022-08-19T10:10:08;27.50;92.90
33717;DHT22;20046;50.746;7.072;2022-08-19T10:12:35;27.60;92.90
33717;DHT22;20046;50.746;7.072;2022-08-19T10:15:01;27.80;92.80
33717;DHT22;20046;50.746;7.072;2022-08-19T10:17:27;28.10;92.30
33717;DHT22;20046;50.746;7.072;2022-08-19T10:19:53;28.50;91.50
33717;DHT22;20046;50.746;7.072;2022-08-19T10:22:19;28.90;91.00
33717;DHT22;20046;50.746;7.072;2022-08-19T10:24:48;29.10;90.80
33717;DHT22;20046;50.746;7.072;2022-08-19T10:27:15;29.00;90.50
33717;DHT22;20046;50.746;7.072;2022-08-19T10:29:40;28.70;90.60
33717;DHT22;20046;50.746;7.072;2022-08-19T10:32:08;28.60;90.90
33717;DHT22;20046;50.746;7.072;2022-08-19T10:34:35;28.30;90.30
33717;DHT22;20046;50.746;7.072;2022-08-19T10:37:02;27.80;90.70
33717;DHT22;20046;50.746;7.072;2022-08-19T10:39:35;28.00;90.70
33717;DHT22;20046;50.746;7.072;2022-08-19T10:42:05;28.40;90.50
33717;DHT22;20046;50.746;7.072;2022-08-19T10:44:32;28.50;90.00
33717;DHT22;20046;50.746;7.072;2022-08-19T10:47:00;28.70;89.40
33717;DHT22;20046;50.746;7.072;2022-08-19T10:49:27;29.40;88.10
33717;DHT22;20046;50.746;7.072;2022-08-19T10:51:52;30.70;86.40
33717;DHT22;20046;50.746;7.072;2022-08-19T10:54:37;31.90;82.20
33717;DHT22;20046;50.746;7.072;2022-08-19T10:57:21;32.40;79.90
33717;DHT22;20046;50.746;7.072;2022-08-19T10:59:49;33.10;77.90
33717;DHT22;20046;50.746;7.072;2022-08-19T11:02:15;32.80;76.20
33717;DHT22;20046;50.746;7.072;2022-08-19T11:04:40;32.00;77.20
33717;DHT22;20046;50.746;7.072;2022-08-19T11:07:07;30.90;77.90
33717;DHT22;20046;50.746;7.072;2022-08-19T11:09:40;30.10;79.40
33717;DHT22;20046;50.746;7.072;2022-08-19T11:12:07;29.60;80.60
33717;DHT22;20046;50.746;7.072;2022-08-19T11:14:33;29.90;81.00
33717;DHT22;20046;50.746;7.072;2022-08-19T11:16:59;31.20;78.50
33717;DHT22;20046;50.746;7.072;2022-08-19T11:19:25;31.80;76.60
33717;DHT22;20046;50.746;7.072;2022-08-19T11:21:51;31.40;76.60
33717;DHT22;20046;50.746;7.072;2022-08-19T11:24:23;30.80;77.00
33717;DHT22;20046;50.746;7.072;2022-08-19T11:26:52;30.70;76.70
33717;DHT22;20046;50.746;7.072;2022-08-19T11:29:20;30.20;77.50
33717;DHT22;20046;50.746;7.072;2022-08-19T11:31:48;29.60;78.00
33717;DHT22;20046;50.746;7.072;2022-08-19T11:34:20;29.10;78.50
33717;DHT22;20046;50.746;7.072;2022-08-19T11:36:48;28.80;79.50
33717;DHT22;20046;50.746;7.072;2022-08-19T11:39:16;28.60;80.30
33717;DHT22;20046;50.746;7.072;2022-08-19T11:41:42;29.70;79.60
33717;DHT22;20046;50.746;7.072;2022-08-19T11:44:09;31.70;75.60
33717;DHT22;20046;50.746;7.072;2022-08-19T11:46:36;33.60;74.10
33717;DHT22;20046;50.746;7.072;2022-08-19T11:49:03;35.40;69.60
33717;DHT22;20046;50.746;7.072;2022-08-19T11:51:30;36.40;66.20
33717;DHT22;20046;50.746;7.072;2022-08-19T11:53:58;36.00;64.80
33717;DHT22;20046;50.746;7.072;2022-08-19T11:56:25;35.20;64.90
33717;DHT22;20046;50.746;7.072;2022-08-19T11:58:52;35.20;64.90
33717;DHT22;20046;50.746;7.072;2022-08-19T12:01:20;35.50;62.90
33717;DHT22;20046;50.746;7.072;2022-08-19T12:03:48;35.70;62.10
33717;DHT22;20046;50.746;7.072;2022-08-19T12:06:17;36.00;60.90
33717;DHT22;20046;50.746;7.072;2022-08-19T12:08:44;36.60;60.00
33717;DHT22;20046;50.746;7.072;2022-08-19T12:11:11;37.10;58.60
33717;DHT22;20046;50.746;7.072;2022-08-19T12:13:37;36.80;59.10
33717;DHT22;20046;50.746;7.072;2022-08-19T12:16:11;36.70;59.00
33717;DHT22;20046;50.746;7.072;2022-08-19T12:18:40;37.20;58.30
33717;DHT22;20046;50.746;7.072;2022-08-19T12:21:09;38.00;57.10
33717;DHT22;20046;50.746;7.072;2022-08-19T12:23:36;38.90;54.80
33717;DHT22;20046;50.746;7.072;2022-08-19T12:26:03;39.40;53.10
33717;DHT22;20046;50.746;7.072;2022-08-19T12:28:30;38.90;53.40
33717;DHT22;20046;50.746;7.072;2022-08-19T12:30:56;39.30;52.60
33717;DHT22;20046;50.746;7.072;2022-08-19T12:33:22;39.70;51.50
33717;DHT22;20046;50.746;7.072;2022-08-19T12:35:50;40.20;51.40
33717;DHT22;20046;50.746;7.072;2022-08-19T12:38:16;40.70;50.90
33717;DHT22;20046;50.746;7.072;2022-08-19T12:40:45;41.00;49.40
33717;DHT22;20046;50.746;7.072;2022-08-19T12:43:11;41.20;49.00
33717;DHT22;20046;50.746;7.072;2022-08-19T12:45:37;41.30;48.60
33717;DHT22;20046;50.746;7.072;2022-08-19T12:48:03;41.40;48.30
33717;DHT22;20046;50.746;7.072;2022-08-19T12:50:30;41.60;47.80
33717;DHT22;20046;50.746;7.072;2022-08-19T12:52:56;41.40;47.70
33717;DHT22;20046;50.746;7.072;2022-08-19T12:55:22;41.90;47.30
33717;DHT22;20046;50.746;7.072;2022-08-19T12:57:48;41.30;47.50
33717;DHT22;20046;50.746;7.072;2022-08-19T13:00:19;41.20;48.00
33717;DHT22;20046;50.746;7.072;2022-08-19T13:02:48;41.50;47.50
33717;DHT22;20046;50.746;7.072;2022-08-19T13:05:26;41.50;46.70
33717;DHT22;20046;50.746;7.072;2022-08-19T13:07:53;41.60;46.80
33717;DHT22;20046;50.746;7.072;2022-08-19T13:10:21;42.20;45.60
33717;DHT22;20046;50.746;7.072;2022-08-19T13:12:49;42.30;44.20
33717;DHT22;20046;50.746;7.072;2022-08-19T13:15:16;42.80;43.80
33717;DHT22;20046;50.746;7.072;2022-08-19T13:17:50;42.90;43.30
33717;DHT22;20046;50.746;7.072;2022-08-19T13:20:18;43.30;42.60
33717;DHT22;20046;50.746;7.072;2022-08-19T13:22:45;43.40;42.00
33717;DHT22;20046;50.746;7.072;2022-08-19T13:25:13;43.20;41.80
33717;DHT22;20046;50.746;7.072;2022-08-19T13:27:40;43.50;41.70
33717;DHT22;20046;50.746;7.072;2022-08-19T13:30:08;43.20;41.60
33717;DHT22;20046;50.746;7.072;2022-08-19T13:32:53;43.20;41.60
33717;DHT22;20046;50.746;7.072;2022-08-19T13:35:50;41.70;42.70
33717;DHT22;20046;50.746;7.072;2022-08-19T13:38:19;40.90;44.50
33717;DHT22;20046;50.746;7.072;2022-08-19T13:40:45;39.30;45.90
33717;DHT22;20046;50.746;7.072;2022-08-19T13:43:11;38.60;47.20
33717;DHT22;20046;50.746;7.072;2022-08-19T13:45:37;39.20;46.50
33717;DHT22;20046;50.746;7.072;2022-08-19T13:48:04;40.10;45.70
33717;DHT22;20046;50.746;7.072;2022-08-19T13:50:38;40.60;44.70
33717;DHT22;20046;50.746;7.072;2022-08-19T13:53:05;40.90;43.90
33717;DHT22;20046;50.746;7.072;2022-08-19T13:55:31;41.10;43.70
33717;DHT22;20046;50.746;7.072;2022-08-19T13:57:58;41.40;43.30
33717;DHT22;20046;50.746;7.072;2022-08-19T14:00:26;40.90;43.20
33717;DHT22;20046;50.746;7.072;2022-08-19T14:02:54;41.00;42.80
33717;DHT22;20046;50.746;7.072;2022-08-19T14:05:21;40.90;42.90
33717;DHT22;20046;50.746;7.072;2022-08-19T14:07:47;40.70;43.10
33717;DHT22;20046;50.746;7.072;2022-08-19T14:10:14;40.30;43.50
33717;DHT22;20046;50.746;7.072;2022-08-19T14:12:40;38.30;45.40
33717;DHT22;20046;50.746;7.072;2022-08-19T14:15:07;36.50;47.30
33717;DHT22;20046;50.746;7.072;2022-08-19T14:17:34;35.30;48.90
33717;DHT22;20046;50.746;7.072;2022-08-19T14:20:02;34.50;50.40
33717;DHT22;20046;50.746;7.072;2022-08-19T14:22:33;33.80;51.20
33717;DHT22;20046;50.746;7.072;2022-08-19T14:24:58;33.00;52.80
33717;DHT22;20046;50.746;7.072;2022-08-19T14:27:24;32.50;53.40
33717;DHT22;20046;50.746;7.072;2022-08-19T14:29:51;32.30;53.80
33717;DHT22;20046;50.746;7.072;2022-08-19T14:32:17;32.10;54.50
33717;DHT22;20046;50.746;7.072;2022-08-19T14:34:43;32.00;54.60
33717;DHT22;20046;50.746;7.072;2022-08-19T14:37:11;31.90;55.30
33717;DHT22;20046;50.746;7.072;2022-08-19T14:39:39;31.90;55.20
33717;DHT22;20046;50.746;7.072;2022-08-19T14:42:09;31.80;54.70
33717;DHT22;20046;50.746;7.072;2022-08-19T14:44:35;31.60;54.60
33717;DHT22;20046;50.746;7.072;2022-08-19T14:47:01;31.30;54.60
33717;DHT22;20046;50.746;7.072;2022-08-19T14:49:27;31.30;55.50
33717;DHT22;20046;50.746;7.072;2022-08-19T14:51:52;31.20;55.40
33717;DHT22;20046;50.746;7.072;2022-08-19T14:54:18;31.10;55.20
33717;DHT22;20046;50.746;7.072;2022-08-19T14:56:44;31.10;55.50
33717;DHT22;20046;50.746;7.072;2022-08-19T14:59:10;30.90;55.80
33717;DHT22;20046;50.746;7.072;2022-08-19T15:01:36;30.80;55.80
33717;DHT22;20046;50.746;7.072;2022-08-19T15:04:01;30.70;56.20
33717;DHT22;20046;50.746;7.072;2022-08-19T15:06:28;30.70;56.30
33717;DHT22;20046;50.746;7.072;2022-08-19T15:08:55;30.60;56.50
33717;DHT22;20046;50.746;7.072;2022-08-19T15:11:22;30.60;56.70
33717;DHT22;20046;50.746;7.072;2022-08-19T15:13:49;30.50;56.60
33717;DHT22;20046;50.746;7.072;2022-08-19T15:16:15;30.50;56.70
33717;DHT22;20046;50.746;7.072;2022-08-19T15:18:42;30.40;56.90
33717;DHT22;20046;50.746;7.072;2022-08-19T15:21:11;30.30;56.90
33717;DHT22;20046;50.746;7.072;2022-08-19T15:23:43;30.20;56.90
33717;DHT22;20046;50.746;7.072;2022-08-19T15:26:09;30.10;57.00
33717;DHT22;20046;50.746;7.072;2022-08-19T15:28:36;30.10;57.80
33717;DHT22;20046;50.746;7.072;2022-08-19T15:31:02;30.00;56.30
33717;DHT22;20046;50.746;7.072;2022-08-19T15:33:30;29.90;57.00
33717;DHT22;20046;50.746;7.072;2022-08-19T15:35:55;29.90;57.20
33717;DHT22;20046;50.746;7.072;2022-08-19T15:38:22;30.00;57.10
33717;DHT22;20046;50.746;7.072;2022-08-19T15:40:50;30.00;56.70
33717;DHT22;20046;50.746;7.072;2022-08-19T15:43:17;30.00;56.30
33717;DHT22;20046;50.746;7.072;2022-08-19T15:45:44;29.80;57.10
33717;DHT22;20046;50.746;7.072;2022-08-19T15:48:10;29.60;57.80
33717;DHT22;20046;50.746;7.072;2022-08-19T15:50:35;29.50;58.10
33717;DHT22;20046;50.746;7.072;2022-08-19T15:53:06;29.50;57.80